Time;durP1;ratioP1;P1;durP2;ratioP2;P2;SDS_P1;SDS_P2;PMS_P1;PMS_P2;Temp;Humidity;BMP_temperature;BMP_pressure;BME280_temperature;BME280_humidity;BME280_pressure;Samples;Min_cycle;Max_cycle;Signal;HPM_P1;HPM_P2
2024/01/13 00:01:52;;;;;;;5.00;4.70;;;18.30;35.70;;;;;;5018081;28;20282;-81
2024/01/13 00:04:18;;;;;;;4.93;4.63;;;18.30;35.70;;;;;;5005740;28;20227;-81
2024/01/13 00:06:43;;;;;;;4.77;4.47;;;18.30;35.70;;;;;;5017604;28;20249;-81
2024/01/13 00:09:10;;;;;;;4.63;4.33;;;18.30;35.70;;;;;;5014181;28;20223;-82
2024/01/13 00:11:35;;;;;;;4.90;4.60;;;18.30;35.70;;;;;;5012067;28;20282;-81
2024/01/13 00:14:01;;;;;;;4.27;4.07;;;18.30;35.70;;;;;;5017637;28;20483;-81
2024/01/13 00:16:27;;;;;;;4.40;4.10;;;18.30;35.70;;;;;;5011710;28;20568;-81
2024/01/13 00:18:52;;;;;;;4.70;4.40;;;18.30;35.80;;;;;;5014254;28;27203;-81
2024/01/13 00:21:18;;;;;;;3.73;3.53;;;18.30;35.70;;;;;;5014890;28;20249;-81
2024/01/13 00:23:43;;;;;;;4.57;4.23;;;18.30;35.70;;;;;;5017644;28;20616;-81
2024/01/13 00:26:09;;;;;;;4.77;4.47;;;18.30;36.60;;;;;;5000824;28;20679;-81
2024/01/13 00:28:35;;;;;;;4.80;4.50;;;18.30;35.80;;;;;;5015208;28;20235;-81
2024/01/13 00:31:00;;;;;;;4.30;4.00;;;18.30;35.80;;;;;;5010196;28;20223;-81
2024/01/13 00:33:26;;;;;;;4.90;4.53;;;18.30;35.80;;;;;;5006867;28;20330;-81
2024/01/13 00:35:51;;;;;;;4.50;4.20;;;18.30;35.70;;;;;;5014716;28;20226;-81
2024/01/13 00:38:17;;;;;;;5.50;4.97;;;18.30;35.80;;;;;;5016603;28;20262;-81
2024/01/13 00:40:42;;;;;;;4.13;3.93;;;18.30;35.80;;;;;;5015275;28;20273;-81
2024/01/13 00:43:09;;;;;;;4.30;4.10;;;18.30;35.70;;;;;;5011311;28;20226;-81
2024/01/13 00:45:34;;;;;;;5.30;4.93;;;18.30;35.70;;;;;;5016460;28;20238;-81
2024/01/13 00:48:00;;;;;;;4.57;4.27;;;18.30;35.80;;;;;;5017207;28;21022;-82
2024/01/13 00:50:26;;;;;;;4.20;3.80;;;18.30;35.80;;;;;;5013222;28;20238;-81
2024/01/13 00:52:52;;;;;;;4.03;3.83;;;18.30;35.80;;;;;;5007980;28;20768;-82
2024/01/13 00:55:17;;;;;;;5.27;4.77;;;18.30;35.80;;;;;;4990136;28;20219;-81
2024/01/13 00:57:43;;;;;;;4.70;4.40;;;18.30;35.80;;;;;;5012513;28;20234;-82
2024/01/13 01:00:09;;;;;;;4.77;4.37;;;18.20;35.70;;;;;;5017692;28;20230;-81
2024/01/13 01:02:34;;;;;;;4.50;4.10;;;18.20;35.70;;;;;;5015852;28;20544;-81
2024/01/13 01:05:00;;;;;;;4.50;4.20;;;18.20;35.70;;;;;;5010393;28;20215;-81
2024/01/13 01:07:25;;;;;;;5.40;5.10;;;18.20;35.70;;;;;;4999438;28;20230;-82
2024/01/13 01:09:51;;;;;;;4.60;4.20;;;18.20;35.80;;;;;;5000845;28;20229;-82
2024/01/13 01:12:16;;;;;;;4.07;3.77;;;18.20;35.70;;;;;;5000071;28;20230;-82
2024/01/13 01:14:42;;;;;;;4.20;3.90;;;18.20;35.80;;;;;;5017036;28;20222;-82
2024/01/13 01:17:07;;;;;;;4.10;3.90;;;18.20;35.70;;;;;;5015288;28;20214;-81
2024/01/13 01:19:33;;;;;;;3.90;3.70;;;18.30;35.90;;;;;;5002322;28;20795;-82
2024/01/13 01:21:58;;;;;;;5.10;4.70;;;18.20;35.70;;;;;;5017342;28;20273;-81
2024/01/13 01:24:24;;;;;;;4.80;4.40;;;18.20;35.70;;;;;;5014978;28;20223;-82
2024/01/13 01:26:49;;;;;;;4.47;4.27;;;18.20;35.70;;;;;;5018024;28;20319;-82
2024/01/13 01:29:15;;;;;;;4.90;4.60;;;18.20;35.80;;;;;;5000450;28;20279;-82
2024/01/13 01:31:40;;;;;;;4.40;4.20;;;18.20;35.80;;;;;;5016674;28;20765;-82
2024/01/13 01:34:06;;;;;;;4.43;4.23;;;18.20;35.80;;;;;;5003501;28;20293;-82
2024/01/13 01:36:31;;;;;;;4.83;4.50;;;18.20;35.80;;;;;;5014209;28;20231;-81
2024/01/13 01:38:57;;;;;;;4.70;4.40;;;18.20;35.80;;;;;;5018132;28;20694;-81
2024/01/13 01:41:25;;;;;;;5.33;4.90;;;18.20;35.80;;;;;;5019689;28;23357;-81
2024/01/13 01:43:50;;;;;;;4.57;4.27;;;18.20;36.50;;;;;;5028025;28;20215;-81
2024/01/13 01:46:19;;;;;;;3.43;3.23;;;18.20;35.80;;;;;;5027269;28;20446;-81
2024/01/13 01:48:45;;;;;;;4.63;4.33;;;18.20;35.80;;;;;;5025666;28;20220;-82
2024/01/13 01:51:15;;;;;;;4.80;4.40;;;18.20;35.80;;;;;;5015856;28;20444;-81
2024/01/13 01:53:42;;;;;;;4.40;4.20;;;18.20;35.70;;;;;;5029058;28;20414;-81
2024/01/13 01:56:18;;;;;;;4.10;3.90;;;18.20;35.80;;;;;;5022130;28;20443;-81
2024/01/13 01:58:46;;;;;;;4.27;4.07;;;18.20;35.70;;;;;;5021619;28;20514;-81
2024/01/13 02:01:13;;;;;;;4.60;4.23;;;18.20;35.80;;;;;;5021275;28;20493;-81
2024/01/13 02:03:39;;;;;;;4.00;3.80;;;18.30;35.90;;;;;;5027261;28;20447;-81
2024/01/13 02:06:06;;;;;;;4.70;4.40;;;18.20;35.80;;;;;;5031784;28;20918;-81
2024/01/13 02:08:32;;;;;;;4.53;4.13;;;18.20;35.80;;;;;;5016012;28;20446;-81
2024/01/13 02:10:58;;;;;;;5.17;4.83;;;18.20;35.80;;;;;;5025942;28;20471;-81
2024/01/13 02:13:23;;;;;;;4.13;3.83;;;18.20;35.80;;;;;;5020712;28;20875;-81
2024/01/13 02:15:49;;;;;;;4.43;4.13;;;18.20;35.80;;;;;;5012432;28;20267;-82
2024/01/13 02:18:15;;;;;;;4.17;3.87;;;18.20;35.80;;;;;;5026768;28;20218;-81
2024/01/13 02:20:40;;;;;;;4.13;3.83;;;18.20;35.80;;;;;;5025610;28;20214;-82
2024/01/13 02:23:06;;;;;;;5.67;4.20;;;18.20;35.80;;;;;;5011398;28;20223;-81
2024/01/13 02:25:31;;;;;;;4.57;4.37;;;18.20;35.80;;;;;;5025974;28;20226;-82
2024/01/13 02:27:57;;;;;;;4.23;4.03;;;18.20;35.80;;;;;;5025102;28;20270;-80
2024/01/13 02:30:22;;;;;;;4.43;4.23;;;18.20;35.80;;;;;;5026969;28;20212;-82
2024/01/13 02:32:48;;;;;;;4.43;4.00;;;18.20;35.80;;;;;;5022256;28;20606;-82
2024/01/13 02:35:13;;;;;;;4.07;3.77;;;18.20;35.90;;;;;;5008300;28;20218;-81
2024/01/13 02:37:39;;;;;;;4.10;3.80;;;18.20;35.80;;;;;;5018658;28;20227;-81
2024/01/13 02:40:09;;;;;;;4.60;4.20;;;18.20;35.80;;;;;;5024763;28;20222;-82
2024/01/13 02:42:35;;;;;;;4.00;3.67;;;18.20;35.80;;;;;;5007732;28;20921;-82
2024/01/13 02:45:00;;;;;;;4.30;4.00;;;18.20;35.80;;;;;;5008605;28;20448;-81
2024/01/13 02:47:38;;;;;;;4.67;4.37;;;18.20;35.80;;;;;;5004286;28;20226;-82
2024/01/13 02:50:04;;;;;;;4.30;3.83;;;18.20;35.80;;;;;;5008515;28;20307;-81
2024/01/13 02:52:30;;;;;;;3.93;3.73;;;18.20;35.80;;;;;;5006505;28;20450;-81
2024/01/13 02:54:55;;;;;;;4.13;3.93;;;18.20;35.90;;;;;;5020586;28;20467;-82
2024/01/13 02:57:21;;;;;;;4.80;4.40;;;18.20;36.60;;;;;;5007775;28;20220;-82
2024/01/13 02:59:46;;;;;;;4.50;4.20;;;18.20;35.80;;;;;;5017588;28;20785;-81
2024/01/13 03:02:12;;;;;;;4.00;3.80;;;18.20;35.80;;;;;;5021132;28;20223;-81
2024/01/13 03:04:37;;;;;;;4.10;3.90;;;18.20;35.80;;;;;;5017594;28;20924;-81
2024/01/13 03:07:03;;;;;;;4.30;4.00;;;18.20;35.80;;;;;;5017076;28;20274;-81
2024/01/13 03:09:28;;;;;;;4.50;4.20;;;18.20;36.00;;;;;;5019309;28;20226;-81
2024/01/13 03:11:54;;;;;;;3.53;3.33;;;18.20;35.80;;;;;;5018537;28;20238;-82
2024/01/13 03:14:19;;;;;;;4.20;3.90;;;18.20;35.80;;;;;;5010325;28;20763;-82
2024/01/13 03:16:45;;;;;;;4.10;3.80;;;18.20;35.80;;;;;;5018951;28;21014;-82
2024/01/13 03:19:10;;;;;;;4.30;4.00;;;18.20;35.80;;;;;;5022940;28;20709;-82
2024/01/13 03:21:36;;;;;;;4.00;3.70;;;18.20;35.80;;;;;;5016918;28;20650;-82
2024/01/13 03:24:02;;;;;;;4.30;4.00;;;18.20;35.80;;;;;;5018582;28;20222;-82
2024/01/13 03:26:27;;;;;;;4.27;3.97;;;18.20;35.80;;;;;;5019995;28;20293;-82
2024/01/13 03:28:53;;;;;;;3.87;3.57;;;18.20;35.80;;;;;;5004478;28;20245;-82
2024/01/13 03:31:18;;;;;;;4.20;3.90;;;18.20;35.90;;;;;;5020168;28;20239;-81
2024/01/13 03:33:45;;;;;;;3.80;3.60;;;18.20;35.80;;;;;;5012719;28;20303;-82
2024/01/13 03:36:11;;;;;;;3.90;3.70;;;18.20;35.80;;;;;;4985645;28;20599;-81
2024/01/13 03:38:36;;;;;;;4.57;4.27;;;18.20;35.80;;;;;;5005201;28;20453;-82
2024/01/13 03:41:02;;;;;;;5.47;5.00;;;18.20;35.80;;;;;;5016896;28;21090;-82
2024/01/13 03:43:28;;;;;;;4.10;3.90;;;18.20;35.80;;;;;;5018098;28;20219;-82
2024/01/13 03:45:53;;;;;;;4.07;3.87;;;18.20;35.90;;;;;;5016034;28;20289;-82
2024/01/13 03:48:19;;;;;;;3.90;3.70;;;18.20;35.80;;;;;;5005016;28;20277;-82
2024/01/13 03:50:44;;;;;;;3.87;3.67;;;18.20;35.80;;;;;;5016599;28;20765;-82
2024/01/13 03:53:10;;;;;;;4.17;3.87;;;18.20;35.90;;;;;;5009356;28;20230;-82
2024/01/13 03:55:35;;;;;;;4.50;4.10;;;18.20;35.90;;;;;;5017589;28;20234;-82
2024/01/13 03:58:01;;;;;;;4.30;3.90;;;18.20;35.90;;;;;;5011842;28;20215;-82
2024/01/13 04:00:26;;;;;;;3.90;3.60;;;18.20;35.90;;;;;;5011437;28;20219;-82
2024/01/13 04:02:52;;;;;;;4.03;3.77;;;18.20;35.90;;;;;;5001985;28;20670;-82
2024/01/13 04:05:17;;;;;;;4.20;3.90;;;18.20;35.80;;;;;;5007670;28;20243;-82
2024/01/13 04:07:43;;;;;;;4.17;3.87;;;18.20;35.90;;;;;;5016021;28;20310;-82
2024/01/13 04:10:09;;;;;;;4.30;4.00;;;18.20;35.90;;;;;;4998858;28;20764;-82
2024/01/13 04:12:34;;;;;;;3.80;3.60;;;18.20;35.90;;;;;;5007628;28;20259;-81
2024/01/13 04:15:00;;;;;;;4.13;3.83;;;18.20;35.80;;;;;;4996988;28;20223;-82
2024/01/13 04:17:25;;;;;;;3.33;3.13;;;18.20;35.90;;;;;;5014816;28;20211;-82
2024/01/13 04:19:51;;;;;;;3.60;3.40;;;18.20;35.80;;;;;;4999757;28;20279;-82
2024/01/13 04:22:16;;;;;;;4.40;4.10;;;18.20;35.90;;;;;;5007362;28;20234;-81
2024/01/13 04:24:42;;;;;;;3.70;3.50;;;18.20;35.80;;;;;;5009884;28;20309;-82
2024/01/13 04:27:07;;;;;;;3.70;3.50;;;18.20;35.80;;;;;;5009628;28;20239;-82
2024/01/13 04:29:33;;;;;;;3.40;3.20;;;18.20;35.80;;;;;;5012340;28;20288;-82
2024/01/13 04:31:58;;;;;;;3.70;3.50;;;18.20;35.90;;;;;;5009517;28;20222;-82
2024/01/13 04:34:24;;;;;;;3.30;3.10;;;18.20;35.90;;;;;;5007007;28;20279;-81
2024/01/13 04:36:50;;;;;;;3.93;3.73;;;18.20;35.80;;;;;;5001441;28;20523;-82
2024/01/13 04:39:15;;;;;;;4.13;3.83;;;18.20;35.80;;;;;;5006453;28;20425;-82
2024/01/13 04:41:41;;;;;;;4.00;3.80;;;18.20;35.80;;;;;;5007636;28;20258;-82
2024/01/13 04:44:08;;;;;;;3.50;3.30;;;18.20;35.80;;;;;;5010920;28;20219;-81
2024/01/13 04:46:34;;;;;;;3.27;3.07;;;18.20;35.80;;;;;;4999205;28;20511;-81
2024/01/13 04:49:00;;;;;;;3.80;3.40;;;18.20;35.80;;;;;;4984047;28;20441;-82
2024/01/13 04:51:25;;;;;;;3.60;3.30;;;18.20;35.80;;;;;;5008302;28;20486;-82
2024/01/13 04:53:51;;;;;;;3.60;3.30;;;18.20;35.80;;;;;;5012673;28;20218;-82
2024/01/13 04:56:16;;;;;;;3.93;3.60;;;18.20;35.70;;;;;;5011375;28;20218;-82
2024/01/13 04:58:42;;;;;;;3.60;3.40;;;18.20;35.70;;;;;;5012840;28;20216;-82
2024/01/13 05:01:07;;;;;;;3.07;2.90;;;18.20;35.70;;;;;;5012820;28;20306;-82
2024/01/13 05:03:35;;;;;;;3.57;3.37;;;18.20;35.70;;;;;;5003571;28;20587;-82
2024/01/13 05:06:01;;;;;;;3.13;2.93;;;18.20;35.70;;;;;;4990030;28;21066;-82
2024/01/13 05:08:26;;;;;;;3.37;3.17;;;18.20;35.60;;;;;;5009660;28;20478;-81
2024/01/13 05:10:52;;;;;;;3.50;3.30;;;18.20;35.60;;;;;;5001993;28;21054;-82
2024/01/13 05:13:18;;;;;;;2.90;2.70;;;18.20;35.70;;;;;;5006692;28;20766;-82
2024/01/13 05:15:43;;;;;;;3.13;2.93;;;18.20;35.60;;;;;;4996771;28;20234;-82
2024/01/13 05:18:09;;;;;;;3.67;3.47;;;18.20;35.60;;;;;;5005378;28;20790;-82
2024/01/13 05:20:34;;;;;;;3.50;3.30;;;18.20;35.50;;;;;;4992096;28;20211;-82
2024/01/13 05:23:00;;;;;;;2.87;2.67;;;18.30;35.60;;;;;;4986733;28;20234;-82
2024/01/13 05:25:26;;;;;;;3.20;2.97;;;18.30;35.70;;;;;;5003736;28;20469;-82
2024/01/13 05:27:51;;;;;;;3.73;3.50;;;18.30;35.60;;;;;;4990228;28;20231;-83
2024/01/13 05:30:17;;;;;;;3.20;3.00;;;18.30;35.60;;;;;;4997256;28;20254;-82
2024/01/13 05:32:42;;;;;;;4.27;3.20;;;18.30;35.60;;;;;;5011287;28;20219;-82
2024/01/13 05:35:08;;;;;;;3.30;3.10;;;18.30;35.60;;;;;;4998954;28;20219;-82
2024/01/13 05:37:34;;;;;;;2.97;2.77;;;18.30;35.60;;;;;;5007144;28;20227;-82
2024/01/13 05:40:00;;;;;;;3.57;2.93;;;18.30;35.60;;;;;;4992539;28;20486;-82
2024/01/13 05:42:25;;;;;;;3.60;3.30;;;18.30;36.30;;;;;;5009997;28;20226;-82
2024/01/13 05:44:51;;;;;;;4.13;3.73;;;18.30;35.60;;;;;;5008804;28;20242;-82
2024/01/13 05:47:17;;;;;;;2.90;2.70;;;18.30;35.60;;;;;;4989063;28;20293;-81
2024/01/13 05:49:43;;;;;;;3.20;3.00;;;18.30;35.60;;;;;;5007132;28;20431;-82
2024/01/13 05:52:10;;;;;;;3.10;2.80;;;18.30;35.50;;;;;;5009439;28;20219;-82
2024/01/13 05:54:39;;;;;;;3.60;3.40;;;18.30;35.50;;;;;;5002965;28;20461;-83
2024/01/13 05:57:04;;;;;;;2.97;2.77;;;18.30;35.50;;;;;;4988102;28;20534;-83
2024/01/13 05:59:30;;;;;;;3.20;3.00;;;18.30;35.50;;;;;;5002845;28;20959;-82
2024/01/13 06:01:56;;;;;;;3.30;3.10;;;18.30;35.50;;;;;;5009428;28;21170;-83
2024/01/13 06:04:22;;;;;;;3.80;3.60;;;18.30;35.50;;;;;;5008073;28;20203;-83
2024/01/13 06:06:47;;;;;;;3.70;3.20;;;18.30;35.50;;;;;;4992802;28;20261;-83
2024/01/13 06:09:13;;;;;;;2.87;2.67;;;18.30;35.50;;;;;;5009416;28;20294;-84
2024/01/13 06:11:40;;;;;;;2.53;2.43;;;18.30;35.50;;;;;;5003648;28;20219;-83
2024/01/13 06:14:06;;;;;;;3.23;3.03;;;18.30;35.50;;;;;;5010509;28;20607;-83
2024/01/13 06:16:31;;;;;;;3.57;3.27;;;18.30;35.40;;;;;;5009589;28;21041;-84
2024/01/13 06:18:57;;;;;;;3.10;2.90;;;18.30;35.40;;;;;;4992808;28;20233;-82
2024/01/13 06:21:23;;;;;;;3.30;3.10;;;18.30;35.30;;;;;;5008229;28;20218;-81
2024/01/13 06:23:48;;;;;;;3.13;2.83;;;18.30;35.30;;;;;;4991992;28;20231;-82
2024/01/13 06:26:14;;;;;;;3.00;2.80;;;18.30;35.30;;;;;;5007757;28;20450;-82
2024/01/13 06:28:39;;;;;;;3.47;3.27;;;18.30;35.30;;;;;;5007924;28;20283;-82
2024/01/13 06:31:05;;;;;;;3.30;3.10;;;18.30;36.10;;;;;;5004632;28;20305;-84
2024/01/13 06:33:31;;;;;;;2.50;2.40;;;18.40;35.50;;;;;;5009168;28;20297;-83
2024/01/13 06:35:57;;;;;;;3.07;2.87;;;18.40;35.50;;;;;;5010962;28;20226;-81
2024/01/13 06:38:23;;;;;;;3.47;3.20;;;18.40;35.50;;;;;;5007010;28;20675;-82
2024/01/13 06:40:48;;;;;;;3.37;3.17;;;18.40;35.40;;;;;;5006430;28;20456;-83
2024/01/13 06:43:14;;;;;;;2.87;2.60;;;18.40;35.30;;;;;;5008102;28;20317;-82
2024/01/13 06:45:40;;;;;;;2.77;2.57;;;18.40;35.30;;;;;;5009901;28;20306;-82
2024/01/13 06:48:05;;;;;;;3.03;2.83;;;18.50;35.30;;;;;;4994252;28;20748;-85
2024/01/13 06:50:32;;;;;;;3.40;3.10;;;18.50;35.10;;;;;;5013653;28;20235;-81
2024/01/13 06:52:57;;;;;;;3.20;2.90;;;18.60;34.90;;;;;;5005799;28;20227;-82
2024/01/13 06:55:24;;;;;;;3.10;2.90;;;18.60;34.80;;;;;;5015866;28;20500;-83
2024/01/13 06:57:51;;;;;;;3.23;2.93;;;18.70;34.90;;;;;;5016391;28;20234;-82
2024/01/13 07:00:17;;;;;;;3.23;3.03;;;18.70;34.80;;;;;;5014463;28;21066;-82
2024/01/13 07:02:44;;;;;;;4.00;3.60;;;18.70;34.80;;;;;;5018038;28;20422;-81
2024/01/13 07:05:10;;;;;;;3.23;3.03;;;18.70;34.80;;;;;;5002314;28;20426;-82
2024/01/13 07:07:36;;;;;;;3.23;3.03;;;18.70;34.80;;;;;;5015169;28;20450;-82
2024/01/13 07:10:04;;;;;;;3.43;3.13;;;18.70;34.70;;;;;;5005787;28;20439;-82
2024/01/13 07:12:30;;;;;;;4.43;3.30;;;18.70;34.80;;;;;;5011147;28;20557;-84
2024/01/13 07:14:56;;;;;;;3.60;3.40;;;18.80;34.80;;;;;;4993287;28;20447;-85
2024/01/13 07:17:21;;;;;;;2.80;2.60;;;18.80;34.70;;;;;;4998122;28;20312;-85
2024/01/13 07:19:47;;;;;;;3.10;2.70;;;18.80;34.70;;;;;;4993551;28;20258;-84
2024/01/13 07:22:12;;;;;;;3.53;3.23;;;18.80;34.70;;;;;;4999783;28;20227;-84
2024/01/13 07:24:38;;;;;;;3.63;3.30;;;18.80;34.60;;;;;;5018472;28;20228;-85
2024/01/13 07:27:04;;;;;;;3.03;2.83;;;18.80;34.70;;;;;;5014135;28;20236;-84
2024/01/13 07:29:30;;;;;;;2.40;2.30;;;18.80;34.70;;;;;;5016398;28;20235;-83
2024/01/13 07:31:55;;;;;;;2.80;2.60;;;18.80;34.70;;;;;;5011210;28;20226;-84
2024/01/13 07:34:21;;;;;;;2.90;2.70;;;18.80;34.70;;;;;;5011553;28;20457;-84
2024/01/13 07:36:47;;;;;;;3.33;3.13;;;18.80;34.80;;;;;;5008574;28;20725;-84
2024/01/13 07:39:12;;;;;;;3.40;3.20;;;18.70;34.90;;;;;;5009551;28;20273;-85
2024/01/13 07:41:38;;;;;;;3.37;3.17;;;18.70;35.00;;;;;;4992616;28;20238;-83
2024/01/13 07:44:04;;;;;;;2.63;2.43;;;18.70;35.10;;;;;;5010064;28;20226;-83
2024/01/13 07:46:29;;;;;;;5.03;3.17;;;18.60;35.00;;;;;;4998473;28;20247;-84
2024/01/13 07:48:55;;;;;;;2.87;2.60;;;18.60;35.00;;;;;;4997080;28;20241;-84
2024/01/13 07:51:20;;;;;;;3.17;2.97;;;18.60;35.10;;;;;;4985318;28;20239;-83
2024/01/13 07:53:46;;;;;;;3.10;2.90;;;18.60;35.10;;;;;;5007293;28;20285;-84
2024/01/13 07:56:12;;;;;;;3.23;2.93;;;18.60;35.20;;;;;;4987156;28;20243;-84
2024/01/13 07:58:37;;;;;;;2.93;2.73;;;18.60;35.20;;;;;;5006325;28;20229;-83
2024/01/13 08:01:03;;;;;;;2.87;2.67;;;18.60;35.20;;;;;;5015681;28;20242;-83
2024/01/13 08:03:29;;;;;;;3.03;2.83;;;18.60;35.20;;;;;;5014572;28;20681;-82
2024/01/13 08:05:54;;;;;;;3.00;2.80;;;18.50;35.20;;;;;;5008853;28;20227;-83
2024/01/13 08:08:20;;;;;;;3.10;2.80;;;18.50;35.20;;;;;;5013423;28;20239;-83
2024/01/13 08:10:46;;;;;;;3.03;2.77;;;18.50;35.20;;;;;;5020601;28;21474;-83
2024/01/13 08:13:14;;;;;;;4.43;2.70;;;18.50;35.20;;;;;;5016742;28;20218;-83
2024/01/13 08:15:40;;;;;;;3.50;3.20;;;18.50;35.30;;;;;;5017729;28;20238;-83
2024/01/13 09:05:13;;;;;;;4.10;3.80;;;18.40;35.50;;;;;;4998816;28;20473;-83
2024/01/13 09:07:39;;;;;;;2.63;2.53;;;18.40;35.60;;;;;;4996788;28;20451;-84
2024/01/13 09:10:06;;;;;;;3.27;3.07;;;18.40;35.50;;;;;;4993176;28;20979;-84
2024/01/13 09:12:31;;;;;;;2.67;2.47;;;18.40;35.60;;;;;;4994628;28;20275;-83
2024/01/13 09:14:57;;;;;;;3.00;2.70;;;18.40;35.60;;;;;;4991788;28;21264;-84
2024/01/13 09:17:22;;;;;;;10.27;2.93;;;18.40;35.60;;;;;;4994649;28;20238;-84
2024/01/13 09:19:48;;;;;;;3.03;2.83;;;18.40;35.60;;;;;;4993224;28;20928;-84
2024/01/13 09:22:14;;;;;;;2.80;2.60;;;18.40;35.50;;;;;;4994112;28;20223;-84
2024/01/13 09:24:43;;;;;;;3.10;2.90;;;18.40;35.60;;;;;;4992616;28;20826;-86
2024/01/13 09:27:08;;;;;;;2.70;2.50;;;18.40;35.60;;;;;;4992561;28;20360;-85
2024/01/13 09:29:34;;;;;;;2.67;2.57;;;18.40;35.60;;;;;;4989030;28;20950;-86
2024/01/13 09:31:59;;;;;;;2.40;2.30;;;18.40;35.60;;;;;;4992869;28;21013;-86
2024/01/13 09:34:25;;;;;;;3.10;2.80;;;18.40;35.60;;;;;;4994585;28;20254;-87
2024/01/13 09:36:51;;;;;;;2.83;2.63;;;18.40;35.70;;;;;;4992084;28;20220;-88
2024/01/13 09:39:17;;;;;;;4.97;2.40;;;18.40;35.60;;;;;;4990197;28;20223;-86
2024/01/13 09:41:47;;;;;;;2.93;2.10;;;18.40;35.70;;;;;;4974124;28;20246;-86
2024/01/13 09:44:27;;;;;;;2.40;2.20;;;18.40;35.70;;;;;;4993422;28;20511;-86
2024/01/13 09:46:54;;;;;;;2.93;2.60;;;18.40;35.60;;;;;;4995699;28;20531;-85
2024/01/13 09:49:22;;;;;;;2.50;2.30;;;18.40;35.60;;;;;;4992207;28;20888;-89
2024/01/13 09:51:49;;;;;;;2.50;2.30;;;18.40;35.70;;;;;;4978347;28;20427;-84
2024/01/13 09:54:24;;;;;;;2.63;2.43;;;18.40;35.60;;;;;;4992605;28;20437;-86
2024/01/13 09:56:51;;;;;;;2.70;2.50;;;18.40;35.60;;;;;;5003753;28;20459;-87
2024/01/13 09:59:16;;;;;;;2.60;2.40;;;18.40;35.60;;;;;;4994077;28;20599;-85
2024/01/13 10:01:43;;;;;;;2.57;2.43;;;18.50;35.70;;;;;;4994735;28;20442;-84
2024/01/13 10:04:09;;;;;;;6.17;2.47;;;18.50;35.70;;;;;;4991767;28;20330;-84
2024/01/13 10:06:36;;;;;;;2.90;2.20;;;18.50;35.70;;;;;;4991913;28;20442;-84
2024/01/13 10:09:04;;;;;;;4.03;2.50;;;18.50;35.70;;;;;;4994342;28;20447;-84
2024/01/13 10:11:30;;;;;;;3.27;2.57;;;18.50;35.70;;;;;;4975864;28;20894;-83
2024/01/13 10:14:12;;;;;;;2.30;2.20;;;18.50;35.70;;;;;;4996240;28;20543;-83
2024/01/13 10:16:38;;;;;;;2.40;2.20;;;18.50;35.70;;;;;;4991646;28;20277;-84
2024/01/13 10:19:08;;;;;;;2.60;2.40;;;18.50;35.70;;;;;;4991316;28;20911;-83
2024/01/13 10:21:35;;;;;;;2.90;2.70;;;18.50;35.70;;;;;;4976106;28;20305;-83
2024/01/13 10:24:02;;;;;;;3.20;2.13;;;18.50;35.70;;;;;;4995345;28;20431;-86
2024/01/13 10:26:29;;;;;;;2.23;2.07;;;18.50;35.70;;;;;;4993692;28;20434;-83
2024/01/13 10:28:56;;;;;;;2.07;1.97;;;18.50;35.70;;;;;;4998775;28;20490;-83
2024/01/13 10:31:23;;;;;;;2.57;2.33;;;18.50;35.70;;;;;;4997063;28;20458;-83
2024/01/13 10:33:49;;;;;;;3.30;2.37;;;18.50;35.70;;;;;;4976138;28;20468;-84
2024/01/13 10:36:18;;;;;;;2.37;2.20;;;18.50;35.70;;;;;;4982779;28;20474;-84
2024/01/13 10:38:44;;;;;;;2.10;1.90;;;18.60;35.70;;;;;;4999980;28;20430;-83
2024/01/13 10:41:10;;;;;;;2.27;2.07;;;18.50;35.70;;;;;;4982262;28;20457;-82
2024/01/13 10:43:41;;;;;;;2.07;1.87;;;18.60;35.80;;;;;;4999601;28;20219;-82
2024/01/13 10:46:11;;;;;;;1.83;1.73;;;18.60;35.90;;;;;;4982578;28;20242;-82
2024/01/13 10:48:48;;;;;;;2.33;1.73;;;18.60;35.80;;;;;;4998080;28;20463;-83
2024/01/13 10:51:27;;;;;;;2.03;1.90;;;18.60;35.80;;;;;;4996053;28;20415;-83
2024/01/13 10:53:56;;;;;;;1.80;1.70;;;18.60;35.80;;;;;;4994633;28;20427;-83
2024/01/13 10:56:22;;;;;;;1.70;1.60;;;18.60;35.80;;;;;;4995893;28;20466;-83
2024/01/13 10:58:50;;;;;;;2.73;2.07;;;18.60;35.80;;;;;;4995257;28;20468;-84
2024/01/13 11:01:15;;;;;;;1.90;1.80;;;18.60;35.80;;;;;;4990856;28;20231;-84
2024/01/13 11:03:44;;;;;;;1.93;1.83;;;18.60;35.90;;;;;;4999603;28;20420;-82
2024/01/13 11:06:09;;;;;;;1.90;1.80;;;18.60;35.90;;;;;;4992915;28;20211;-84
2024/01/13 11:08:36;;;;;;;2.37;2.17;;;18.60;35.90;;;;;;5017055;28;20781;-83
2024/01/13 11:11:02;;;;;;;2.60;2.00;;;18.60;35.90;;;;;;5009651;28;20230;-82
2024/01/13 11:13:32;;;;;;;1.97;1.87;;;18.60;35.90;;;;;;5014513;28;20430;-83
2024/01/13 11:16:06;;;;;;;2.20;2.00;;;18.60;36.00;;;;;;5011933;28;20434;-83
2024/01/13 11:18:44;;;;;;;1.83;1.73;;;18.60;36.00;;;;;;5015606;28;20427;-83
2024/01/13 11:21:11;;;;;;;1.80;1.70;;;18.60;36.00;;;;;;5017508;28;20491;-84
2024/01/13 11:23:57;;;;;;;2.20;2.00;;;18.60;36.00;;;;;;5018777;28;20430;-83
2024/01/13 11:26:48;;;;;;;1.70;1.60;;;18.60;36.00;;;;;;5015704;28;20446;-83
2024/01/13 11:29:20;;;;;;;3.00;1.80;;;18.60;36.00;;;;;;5018315;28;20470;-83
2024/01/13 11:31:53;;;;;;;1.70;1.60;;;18.60;36.20;;;;;;5013321;28;20459;-83
2024/01/13 11:34:18;;;;;;;1.80;1.70;;;18.60;36.20;;;;;;5014859;28;20424;-83
2024/01/13 11:36:47;;;;;;;2.10;1.60;;;18.60;36.10;;;;;;5016768;28;20767;-83
2024/01/13 11:39:13;;;;;;;1.73;1.63;;;18.60;36.10;;;;;;5029910;28;20253;-83
2024/01/13 11:41:41;;;;;;;7.33;1.80;;;18.60;36.20;;;;;;5019148;28;20419;-83
2024/01/13 11:44:08;;;;;;;2.30;1.80;;;18.60;36.10;;;;;;5018070;28;20269;-84
2024/01/13 11:46:45;;;;;;;1.70;1.60;;;18.60;36.20;;;;;;4995305;28;20960;-83
2024/01/13 11:49:11;;;;;;;1.63;1.53;;;18.60;36.20;;;;;;5016427;28;20450;-83
2024/01/13 11:51:56;;;;;;;2.10;1.83;;;18.60;36.20;;;;;;5018146;28;20419;-83
2024/01/13 11:54:22;;;;;;;2.13;1.93;;;18.60;36.20;;;;;;5018802;28;20429;-84
2024/01/13 11:56:49;;;;;;;1.70;1.60;;;18.60;36.20;;;;;;5013449;28;20423;-84
2024/01/13 11:59:16;;;;;;;4.60;2.47;;;18.60;36.30;;;;;;5015385;28;21087;-85
2024/01/13 12:01:44;;;;;;;1.93;1.73;;;18.70;36.40;;;;;;5011731;28;20470;-84
2024/01/13 12:04:09;;;;;;;1.57;1.47;;;18.60;36.30;;;;;;5014274;28;20460;-84
2024/01/13 12:06:35;;;;;;;1.57;1.47;;;18.70;37.20;;;;;;5014007;28;20901;-84
2024/01/13 12:09:01;;;;;;;1.60;1.50;;;18.70;36.50;;;;;;5011813;28;20227;-84
2024/01/13 12:11:27;;;;;;;1.57;1.47;;;18.70;36.50;;;;;;5013558;28;20229;-83
2024/01/13 12:13:53;;;;;;;1.50;1.40;;;18.60;36.40;;;;;;5011874;28;20289;-84
2024/01/13 12:16:19;;;;;;;1.80;1.70;;;18.70;36.50;;;;;;5021397;28;20420;-84
2024/01/13 12:18:48;;;;;;;1.60;1.50;;;18.70;36.50;;;;;;5008639;28;20697;-83
2024/01/13 12:21:14;;;;;;;1.70;1.60;;;18.70;36.50;;;;;;5040786;28;20543;-85
2024/01/13 12:23:43;;;;;;;3.43;1.60;;;18.70;36.50;;;;;;5023327;28;20419;-83
2024/01/13 12:26:08;;;;;;;1.80;1.70;;;18.70;36.50;;;;;;5024180;28;20414;-83
2024/01/13 12:28:34;;;;;;;3.17;1.80;;;18.70;36.50;;;;;;5023521;28;22310;-83
2024/01/13 12:31:03;;;;;;;1.77;1.67;;;18.70;36.50;;;;;;5026170;28;20276;-84
2024/01/13 12:33:31;;;;;;;2.30;2.10;;;18.70;36.50;;;;;;5009777;28;20398;-84
2024/01/13 12:35:59;;;;;;;2.87;1.77;;;18.70;36.50;;;;;;5027530;28;20430;-84
2024/01/13 12:38:29;;;;;;;1.87;1.70;;;18.70;36.50;;;;;;5024045;28;20442;-83
2024/01/13 12:40:55;;;;;;;4.20;1.87;;;18.70;36.40;;;;;;5022920;28;20419;-83
2024/01/13 12:43:21;;;;;;;1.83;1.50;;;18.60;36.30;;;;;;5028436;28;20553;-83
2024/01/13 12:45:51;;;;;;;3.23;1.90;;;18.70;36.40;;;;;;5006375;28;20407;-83
2024/01/13 12:48:17;;;;;;;1.80;1.70;;;18.70;36.50;;;;;;5027003;28;20467;-84
2024/01/13 12:50:43;;;;;;;3.20;2.00;;;18.70;36.50;;;;;;5010599;28;20465;-83
2024/01/13 12:53:09;;;;;;;2.40;2.03;;;18.70;36.50;;;;;;5023683;28;20638;-83
2024/01/13 12:55:35;;;;;;;1.63;1.53;;;18.70;36.50;;;;;;5013590;28;20525;-81
2024/01/13 12:58:01;;;;;;;3.13;1.50;;;18.70;36.50;;;;;;5023015;28;20442;-84
2024/01/13 13:00:29;;;;;;;1.60;1.50;;;18.70;36.50;;;;;;5026831;28;20848;-83
2024/01/13 13:02:55;;;;;;;1.80;1.70;;;18.70;36.50;;;;;;5003727;28;20650;-83
2024/01/13 13:05:21;;;;;;;1.70;1.60;;;18.70;36.60;;;;;;5022433;28;20453;-81
2024/01/13 13:07:47;;;;;;;2.00;1.60;;;18.70;36.50;;;;;;5003897;28;20434;-84
2024/01/13 13:10:13;;;;;;;1.73;1.63;;;18.70;36.50;;;;;;5024945;28;20442;-84
2024/01/13 13:12:39;;;;;;;2.70;1.80;;;18.70;36.60;;;;;;5024609;28;20466;-83
2024/01/13 13:15:05;;;;;;;6.50;1.67;;;18.60;36.50;;;;;;5025097;28;20249;-82
2024/01/13 13:17:31;;;;;;;1.80;1.70;;;18.70;36.60;;;;;;5021516;28;20439;-82
2024/01/13 13:19:57;;;;;;;1.97;1.87;;;18.60;36.50;;;;;;5018951;28;20528;-82
2024/01/13 13:22:23;;;;;;;1.70;1.60;;;18.70;36.60;;;;;;5023869;28;20222;-81
2024/01/13 13:24:48;;;;;;;1.63;1.53;;;18.70;36.60;;;;;;5011575;28;20224;-81
2024/01/13 13:27:14;;;;;;;1.50;1.40;;;18.60;36.50;;;;;;5024888;28;20262;-82
2024/01/13 13:29:40;;;;;;;3.20;1.40;;;18.60;36.50;;;;;;5026209;28;20235;-82
2024/01/13 13:32:06;;;;;;;1.60;1.47;;;18.60;36.50;;;;;;5024650;28;20233;-82